createdAt,value
2022-08-03T00:01:40.942Z,59.65
2022-08-03T00:04:42.958Z,59.04
2022-08-03T00:07:45.085Z,59.61
2022-08-03T00:10:47.331Z,59.86
2022-08-03T00:13:49.885Z,59.05
2022-08-03T00:16:51.951Z,59.82
2022-08-03T00:19:54.027Z,59.65
2022-08-03T00:22:56.205Z,59.33
2022-08-03T00:25:58.410Z,59.73
2022-08-03T00:29:00.569Z,59.71
2022-08-03T00:32:02.713Z,58.74
2022-08-03T00:35:09.102Z,58.67
2022-08-03T00:38:12.562Z,59.21
2022-08-03T00:41:15.694Z,58.77
2022-08-03T00:44:17.835Z,59.25
2022-08-03T00:47:19.863Z,58.70
2022-08-03T00:50:24.680Z,59.47
2022-08-03T00:53:27.967Z,59.69
2022-08-03T00:56:30.481Z,58.58
2022-08-03T00:59:32.743Z,58.99
2022-08-03T01:02:34.967Z,58.62
2022-08-03T01:05:43.040Z,58.60
2022-08-03T01:09:19.832Z,59.00
2022-08-03T01:12:40.246Z,58.98
2022-08-03T01:16:02.620Z,59.59
2022-08-03T01:19:42.740Z,58.52
2022-08-03T01:23:08.958Z,58.54
2022-08-03T01:26:25.826Z,58.67
2022-08-03T01:29:30.942Z,59.50
2022-08-03T01:33:03.775Z,59.49
2022-08-03T01:36:09.993Z,58.86
2022-08-03T01:39:12.551Z,58.33
2022-08-03T01:42:17.342Z,59.39
2022-08-03T01:45:22.636Z,58.92
2022-08-03T01:48:26.479Z,58.42
2022-08-03T01:51:58.456Z,58.93
2022-08-03T01:54:53.450Z,59.44
2022-08-03T01:58:05.873Z,58.38
2022-08-03T02:01:09.390Z,59.14
2022-08-03T02:04:14.723Z,58.45
2022-08-03T02:07:17.859Z,59.08
2022-08-03T02:10:34.213Z,58.83
2022-08-03T02:13:38.713Z,58.75
2022-08-03T02:16:41.015Z,58.78
2022-08-03T02:19:43.997Z,58.46
2022-08-03T02:22:47.258Z,58.85
2022-08-03T02:25:54.132Z,58.37
2022-08-03T02:28:58.010Z,58.26
2022-08-03T02:32:04.546Z,59.28
2022-08-03T02:35:12.685Z,58.62
2022-08-03T02:38:18.450Z,59.14
2022-08-03T02:41:24.818Z,58.14
2022-08-03T02:44:28.445Z,58.20
2022-08-03T02:47:54.035Z,58.07
2022-08-03T02:50:57.707Z,58.09
2022-08-03T02:54:03.846Z,58.28
2022-08-03T02:57:09.166Z,59.19
2022-08-03T03:00:12.700Z,59.58
2022-08-03T03:03:15.701Z,59.19
2022-08-03T03:06:19.524Z,59.12
2022-08-03T03:09:21.922Z,59.03
2022-08-03T03:12:26.145Z,59.15
2022-08-03T03:15:29.697Z,58.50
2022-08-03T03:18:34.699Z,59.18
2022-08-03T03:21:37.546Z,58.36
2022-08-03T03:24:41.886Z,58.32
2022-08-03T03:27:44.419Z,58.05
2022-08-03T03:30:53.425Z,58.35
2022-08-03T03:33:58.928Z,58.67
2022-08-03T03:37:01.713Z,58.85
2022-08-03T03:40:04.190Z,58.55
2022-08-03T03:43:10.793Z,58.89
2022-08-03T03:46:13.455Z,57.83
2022-08-03T03:49:16.131Z,58.69
2022-08-03T03:52:18.277Z,59.04
2022-08-03T03:55:20.497Z,58.84
2022-08-03T03:58:22.586Z,57.82
2022-08-03T04:01:26.957Z,57.79
2022-08-03T04:04:47.454Z,58.06
2022-08-03T04:08:22.078Z,58.75
2022-08-03T04:11:53.193Z,58.96
2022-08-03T04:14:58.009Z,57.85
2022-08-03T04:18:01.920Z,58.46
2022-08-03T04:21:08.665Z,57.58
2022-08-03T04:24:13.496Z,58.23
2022-08-03T04:27:20.911Z,58.08
2022-08-03T04:30:23.645Z,57.69
2022-08-03T04:33:29.306Z,57.75
2022-08-03T04:36:37.168Z,58.31
2022-08-03T04:39:42.186Z,57.78
2022-08-03T04:42:45.331Z,57.71
2022-08-03T04:45:48.429Z,57.86
2022-08-03T04:48:51.153Z,57.84
2022-08-03T04:51:53.493Z,57.31
2022-08-03T04:54:55.546Z,58.31
2022-08-03T04:57:58.769Z,57.55
2022-08-03T05:01:00.871Z,58.66
2022-08-03T05:04:03.882Z,58.50
2022-08-03T05:07:11.511Z,58.45
2022-08-03T05:10:16.327Z,57.70
2022-08-03T05:13:18.870Z,57.75
2022-08-03T05:16:21.014Z,57.56
2022-08-03T05:19:23.076Z,58.37
2022-08-03T05:22:25.061Z,57.18
2022-08-03T05:25:27.504Z,57.41
2022-08-03T05:28:29.899Z,57.77
2022-08-03T05:31:32.034Z,58.09
2022-08-03T05:34:34.166Z,57.45
2022-08-03T05:37:36.234Z,57.28
2022-08-03T05:40:38.278Z,56.96
2022-08-03T05:43:41.612Z,58.06
2022-08-03T05:46:43.602Z,57.01
2022-08-03T05:49:45.579Z,57.42
2022-08-03T05:52:48.016Z,58.13
2022-08-03T05:55:55.403Z,58.33
2022-08-03T05:59:11.353Z,58.16
2022-08-03T06:02:21.050Z,58.73
2022-08-03T06:05:23.172Z,58.98
2022-08-03T06:08:25.299Z,58.00
2022-08-03T06:11:27.296Z,58.20
2022-08-03T06:14:29.455Z,57.92
2022-08-03T06:17:37.077Z,58.73
2022-08-03T06:20:39.627Z,58.00
2022-08-03T06:23:54.701Z,58.34
2022-08-03T06:26:57.689Z,58.40
2022-08-03T06:30:00.380Z,57.55
2022-08-03T06:33:02.553Z,56.96
2022-08-03T06:36:04.891Z,57.18
2022-08-03T06:39:08.040Z,58.14
2022-08-03T06:42:10.738Z,57.49
2022-08-03T06:45:13.574Z,57.84
2022-08-03T06:48:15.644Z,57.98
2022-08-03T06:51:17.709Z,58.65
2022-08-03T06:54:22.355Z,57.50
2022-08-03T06:57:24.869Z,58.57
2022-08-03T07:00:28.114Z,57.90
2022-08-03T07:03:30.681Z,57.31
2022-08-03T07:06:32.874Z,57.29
2022-08-03T07:09:34.913Z,58.12
2022-08-03T07:12:38.039Z,58.25
2022-08-03T07:15:58.395Z,58.15
2022-08-03T07:19:00.358Z,58.16
2022-08-03T07:22:04.470Z,57.46
2022-08-03T07:25:07.786Z,57.50
2022-08-03T07:28:09.944Z,57.75
2022-08-03T07:31:12.110Z,57.65
2022-08-03T07:34:14.456Z,57.65
2022-08-03T07:37:16.637Z,57.23
2022-08-03T07:40:18.641Z,57.35
2022-08-03T07:43:21.062Z,56.83
2022-08-03T07:46:23.305Z,57.44
2022-08-03T07:49:28.874Z,58.12
2022-08-03T07:52:49.895Z,57.30
2022-08-03T07:55:52.489Z,57.17
2022-08-03T07:58:55.452Z,56.58
2022-08-03T08:01:57.499Z,55.65
2022-08-03T08:05:04.974Z,56.46
2022-08-03T08:08:07.997Z,56.06
2022-08-03T08:11:10.112Z,56.14
2022-08-03T08:14:12.588Z,55.19
2022-08-03T08:17:15.001Z,55.03
2022-08-03T08:20:27.818Z,55.11
2022-08-03T08:23:43.404Z,54.88
2022-08-03T08:26:47.545Z,53.78
2022-08-03T08:29:55.259Z,54.25
2022-08-03T08:33:01.077Z,53.58
2022-08-03T08:36:03.155Z,54.90
2022-08-03T08:39:05.330Z,54.94
2022-08-03T08:42:07.490Z,53.74
2022-08-03T08:45:11.932Z,53.86
2022-08-03T08:48:15.265Z,54.21
2022-08-03T08:51:19.976Z,53.64
2022-08-03T08:54:23.126Z,53.05
2022-08-03T08:57:43.310Z,52.59
2022-08-03T09:00:45.975Z,52.15
2022-08-03T09:03:48.301Z,53.12
2022-08-03T09:07:17.633Z,52.99
2022-08-03T09:10:14.481Z,53.07
2022-08-03T09:13:16.691Z,53.15
2022-08-03T09:16:21.501Z,52.61
2022-08-03T09:19:23.558Z,52.75
2022-08-03T09:22:25.947Z,52.65
2022-08-03T09:25:33.930Z,52.39
2022-08-03T09:28:53.895Z,51.91
2022-08-03T09:32:04.587Z,51.77
2022-08-03T09:35:09.340Z,51.93
2022-08-03T09:38:15.555Z,52.22
2022-08-03T09:41:19.151Z,52.26
2022-08-03T09:44:34.930Z,51.86
2022-08-03T09:47:45.139Z,52.76
2022-08-03T09:51:13.026Z,52.31
2022-08-03T09:54:28.708Z,51.94
2022-08-03T09:57:31.352Z,51.73
2022-08-03T10:00:52.665Z,52.03
2022-08-03T10:04:04.303Z,51.96
2022-08-03T10:07:11.181Z,52.20
2022-08-03T10:10:29.013Z,52.94
2022-08-03T10:13:34.139Z,52.39
2022-08-03T10:16:40.071Z,52.22
2022-08-03T10:19:42.442Z,52.33
2022-08-03T10:22:44.739Z,52.28
2022-08-03T10:25:49.626Z,51.63
2022-08-03T10:28:54.549Z,52.03
2022-08-03T10:31:59.587Z,52.52
2022-08-03T10:35:19.730Z,52.28
2022-08-03T10:38:29.614Z,52.51
2022-08-03T10:41:36.593Z,51.48
2022-08-03T10:44:42.525Z,51.43
2022-08-03T10:47:45.501Z,51.52
2022-08-03T10:50:49.809Z,51.04
2022-08-03T10:53:54.744Z,51.49
2022-08-03T10:57:16.378Z,51.69
2022-08-03T11:00:25.688Z,50.39
2022-08-03T11:03:30.218Z,50.29
2022-08-03T11:06:37.632Z,51.02
2022-08-03T11:09:44.758Z,50.51
2022-08-03T11:12:47.997Z,50.46
2022-08-03T11:15:52.412Z,50.55
2022-08-03T11:19:05.141Z,51.12
2022-08-03T11:22:07.561Z,50.90
2022-08-03T11:25:09.572Z,51.49
2022-08-03T11:28:33.724Z,50.84
2022-08-03T11:31:49.692Z,50.99
2022-08-03T11:35:22.207Z,50.63
2022-08-03T11:38:24.793Z,50.64
2022-08-03T11:41:45.251Z,50.89
2022-08-03T11:44:47.980Z,50.95
2022-08-03T11:47:54.505Z,51.03
2022-08-03T11:50:57.093Z,51.65
2022-08-03T11:54:07.438Z,51.49
2022-08-03T11:57:09.992Z,51.22
2022-08-03T12:00:24.270Z,51.20
2022-08-03T12:03:33.157Z,51.32
2022-08-03T12:06:55.890Z,50.62
2022-08-03T12:10:08.053Z,51.73
2022-08-03T12:14:10.662Z,51.64
2022-08-03T12:17:11.331Z,51.61
2022-08-03T12:20:34.991Z,51.68
2022-08-03T12:23:38.556Z,51.57
2022-08-03T12:26:56.771Z,50.87
2022-08-03T12:30:02.166Z,51.11
2022-08-03T12:33:26.979Z,51.18
2022-08-03T12:36:31.557Z,50.71
2022-08-03T12:39:33.828Z,50.62
2022-08-03T12:42:37.721Z,51.63
2022-08-03T12:45:40.352Z,51.25
2022-08-03T12:49:00.197Z,51.44
2022-08-03T12:52:07.035Z,50.60
2022-08-03T12:55:20.545Z,51.10
2022-08-03T12:58:33.787Z,50.95
2022-08-03T13:01:54.877Z,50.52
2022-08-03T13:04:57.775Z,52.20
2022-08-03T13:07:59.928Z,53.30
2022-08-03T13:11:21.590Z,53.61
2022-08-03T13:14:23.969Z,53.33
2022-08-03T13:17:27.241Z,53.67
2022-08-03T13:20:31.869Z,54.03
2022-08-03T13:23:36.424Z,54.90
2022-08-03T13:26:38.517Z,53.46
2022-08-03T13:29:40.602Z,53.90
2022-08-03T13:32:42.663Z,53.71
2022-08-03T13:35:44.748Z,53.84
2022-08-03T13:38:46.778Z,52.76
2022-08-03T13:41:50.351Z,53.00
2022-08-03T13:44:52.638Z,52.84
2022-08-03T13:47:54.845Z,53.15
2022-08-03T13:50:56.922Z,53.18
2022-08-03T13:53:59.915Z,52.75
2022-08-03T13:58:01.229Z,53.54
2022-08-03T14:00:27.280Z,52.63
2022-08-03T14:03:30.961Z,52.83
2022-08-03T14:06:33.102Z,53.21
2022-08-03T14:09:35.172Z,52.53
2022-08-03T14:12:37.216Z,52.37
2022-08-03T14:15:39.434Z,51.46
2022-08-03T14:18:42.447Z,51.08
2022-08-03T14:21:45.580Z,50.68
2022-08-03T14:25:02.421Z,51.77
2022-08-03T14:28:06.106Z,50.89
2022-08-03T14:32:09.200Z,50.03
2022-08-03T14:34:30.434Z,50.20
2022-08-03T14:37:35.971Z,49.72
2022-08-03T14:40:38.120Z,51.46
2022-08-03T14:43:40.309Z,50.01
2022-08-03T14:47:02.411Z,50.79
2022-08-03T14:50:37.582Z,50.51
2022-08-03T14:53:31.760Z,50.15
2022-08-03T14:56:39.537Z,50.30
2022-08-03T14:59:55.952Z,50.94
2022-08-03T15:03:04.773Z,50.27
2022-08-03T15:06:09.758Z,51.33
2022-08-03T15:09:21.200Z,50.49
2022-08-03T15:12:28.729Z,50.56
2022-08-03T15:15:30.959Z,50.67
2022-08-03T15:18:33.372Z,50.35
2022-08-03T15:21:46.104Z,51.45
2022-08-03T15:24:49.964Z,51.42
2022-08-03T15:28:02.671Z,51.32
2022-08-03T15:31:07.056Z,50.01
2022-08-03T15:34:26.955Z,50.95
2022-08-03T15:37:52.062Z,51.54
2022-08-03T15:40:55.364Z,51.54
2022-08-03T15:43:59.897Z,52.20
2022-08-03T15:47:03.721Z,52.45
2022-08-03T15:50:09.597Z,52.66
2022-08-03T15:53:12.068Z,52.68
2022-08-03T15:56:18.248Z,52.93
2022-08-03T15:59:20.948Z,53.15
2022-08-03T16:02:23.054Z,53.10
2022-08-03T16:05:26.049Z,53.01
2022-08-03T16:08:28.103Z,53.58
2022-08-03T16:11:30.633Z,52.92
2022-08-03T16:14:43.399Z,54.03
2022-08-03T16:17:53.071Z,53.42
2022-08-03T16:20:55.171Z,52.36
2022-08-03T16:23:58.139Z,52.75
2022-08-03T16:27:00.887Z,53.18
2022-08-03T16:30:06.232Z,53.41
2022-08-03T16:33:08.382Z,53.23
2022-08-03T16:36:10.392Z,53.19
2022-08-03T16:39:15.355Z,53.85
2022-08-03T16:42:17.675Z,53.44
2022-08-03T16:48:53.946Z,54.48
2022-08-03T16:51:56.057Z,54.09
2022-08-03T16:55:01.030Z,53.68
2022-08-03T16:58:05.511Z,53.52
2022-08-03T17:01:22.507Z,53.92
2022-08-03T17:04:27.571Z,53.39
2022-08-03T17:07:31.235Z,53.58
2022-08-03T17:10:33.595Z,54.46
2022-08-03T17:13:39.922Z,54.36
2022-08-03T17:16:53.865Z,54.49
2022-08-03T17:19:58.379Z,53.41
2022-08-03T17:23:33.932Z,54.10
2022-08-03T17:26:37.806Z,53.64
2022-08-03T17:29:51.541Z,53.71
2022-08-03T17:32:57.527Z,53.77
2022-08-03T17:36:00.358Z,54.26
2022-08-03T17:39:04.982Z,53.52
2022-08-03T17:42:30.769Z,54.23
2022-08-03T17:45:52.301Z,54.42
2022-08-03T17:48:54.348Z,54.13
2022-08-03T17:52:06.189Z,54.46
2022-08-03T17:55:56.673Z,55.27
2022-08-03T17:59:08.701Z,55.36
2022-08-03T18:02:32.862Z,54.38
2022-08-03T18:06:10.493Z,55.57
2022-08-03T18:09:04.915Z,54.96
2022-08-03T18:12:29.026Z,54.89
2022-08-03T18:15:50.477Z,55.17
2022-08-03T18:19:00.415Z,55.57
2022-08-03T18:22:13.318Z,55.60
2022-08-03T18:25:15.890Z,55.71
2022-08-03T18:28:19.236Z,55.45
2022-08-03T18:31:59.435Z,55.96
2022-08-03T18:34:53.152Z,55.25
2022-08-03T18:37:58.511Z,55.62
2022-08-03T18:41:03.575Z,55.55
2022-08-03T18:44:52.834Z,56.27
2022-08-03T18:47:52.304Z,55.62
2022-08-03T18:51:09.927Z,56.43
2022-08-03T18:54:45.623Z,55.47
2022-08-03T18:57:48.998Z,55.86
2022-08-03T19:01:57.427Z,55.91
2022-08-03T19:04:35.358Z,55.32
2022-08-03T19:07:42.661Z,56.39
2022-08-03T19:11:06.207Z,56.21
2022-08-03T19:14:11.471Z,55.80
2022-08-03T19:17:14.364Z,55.67
2022-08-03T19:20:30.779Z,56.63
2022-08-03T19:23:34.241Z,55.84
2022-08-03T19:26:38.639Z,56.75
2022-08-03T19:29:59.328Z,56.64
2022-08-03T19:33:05.034Z,56.33
2022-08-03T19:36:10.850Z,56.59
2022-08-03T19:39:14.361Z,56.83
2022-08-03T19:42:29.084Z,55.93
2022-08-03T19:46:04.996Z,56.28
2022-08-03T19:49:03.305Z,56.28
2022-08-03T19:52:11.696Z,56.80
2022-08-03T19:55:16.704Z,56.98
2022-08-03T19:58:28.820Z,56.00
2022-08-03T20:01:31.471Z,56.56
2022-08-03T20:04:53.388Z,56.51
2022-08-03T20:07:59.319Z,57.13
2022-08-03T20:11:02.294Z,56.54
2022-08-03T20:14:05.328Z,56.23
2022-08-03T20:17:09.918Z,57.07
2022-08-03T20:20:13.536Z,56.60
2022-08-03T20:23:20.248Z,56.80
2022-08-03T20:26:29.509Z,56.82
2022-08-03T20:30:05.186Z,56.62
2022-08-03T20:32:59.158Z,56.27
2022-08-03T20:36:02.540Z,57.45
2022-08-03T20:39:07.761Z,57.54
2022-08-03T20:42:10.419Z,57.29
2022-08-03T20:46:01.009Z,57.25
2022-08-03T20:48:37.478Z,57.34
2022-08-03T20:51:50.578Z,56.79
2022-08-03T20:54:55.937Z,56.59
2022-08-03T20:57:59.124Z,56.60
2022-08-03T21:01:02.744Z,57.22
2022-08-03T21:04:07.477Z,56.71
2022-08-03T21:07:18.720Z,57.42
2022-08-03T21:10:30.292Z,57.57
2022-08-03T21:13:58.512Z,56.89
2022-08-03T21:17:09.409Z,56.57
2022-08-03T21:20:16.618Z,56.78
2022-08-03T21:23:37.112Z,57.39
2022-08-03T21:26:47.562Z,57.00
2022-08-03T21:29:53.470Z,57.28
2022-08-03T21:32:57.778Z,56.89
2022-08-03T21:36:01.946Z,57.11
2022-08-03T21:39:09.019Z,57.09
2022-08-03T21:42:12.466Z,57.80
2022-08-03T21:45:17.302Z,57.40
2022-08-03T21:48:24.286Z,56.65
2022-08-03T21:51:29.656Z,57.68
2022-08-03T21:54:37.651Z,57.73
2022-08-03T21:57:44.034Z,57.30
2022-08-03T22:00:46.432Z,56.97
2022-08-03T22:03:51.085Z,57.34
2022-08-03T22:06:56.794Z,57.80
2022-08-03T22:10:02.232Z,57.58
2022-08-03T22:13:04.494Z,57.28
2022-08-03T22:16:07.511Z,57.18
2022-08-03T22:19:09.672Z,57.61
2022-08-03T22:22:14.101Z,58.08
2022-08-03T22:25:17.121Z,57.16
2022-08-03T22:28:22.012Z,56.95
2022-08-03T22:31:30.857Z,57.94
2022-08-03T22:34:49.312Z,57.99
2022-08-03T22:37:55.565Z,57.77
2022-08-03T22:40:57.959Z,57.75
2022-08-03T22:44:04.677Z,58.37
2022-08-03T22:47:07.382Z,57.93
2022-08-03T22:50:31.355Z,57.13
2022-08-03T22:53:34.876Z,57.52
2022-08-03T22:56:38.918Z,57.41
2022-08-03T22:59:42.082Z,57.31
2022-08-03T23:02:48.084Z,57.27
2022-08-03T23:06:02.272Z,57.38
2022-08-03T23:09:13.205Z,57.07
2022-08-03T23:12:19.738Z,57.31
2022-08-03T23:15:24.884Z,58.15
2022-08-03T23:18:37.279Z,57.53
2022-08-03T23:21:53.721Z,57.87
2022-08-03T23:25:04.902Z,58.26
2022-08-03T23:28:09.130Z,58.67
2022-08-03T23:31:13.963Z,57.57
2022-08-03T23:34:36.509Z,57.40
2022-08-03T23:38:04.195Z,57.96
2022-08-03T23:41:04.519Z,57.63
2022-08-03T23:44:07.859Z,57.82
2022-08-03T23:47:10.127Z,58.13
2022-08-03T23:50:13.010Z,57.56
2022-08-03T23:53:23.605Z,58.44
2022-08-03T23:56:53.206Z,57.80
